sensor_id;sensor_type;location;lat;lon;timestamp;P1;durP1;ratioP1;P2;durP2;ratioP2
23682;SDS011;24897;53.514;10.482;2023-02-11T00:02:10;117.50;;;104.83;;
23682;SDS011;24897;53.514;10.482;2023-02-11T00:04:55;125.47;;;108.83;;
23682;SDS011;24897;53.514;10.482;2023-02-11T00:07:39;115.83;;;103.37;;
23682;SDS011;24897;53.514;10.482;2023-02-11T00:10:23;112.03;;;98.90;;
23682;SDS011;24897;53.514;10.482;2023-02-11T00:13:08;116.90;;;104.27;;
23682;SDS011;24897;53.514;10.482;2023-02-11T00:15:53;124.00;;;111.53;;
23682;SDS011;24897;53.514;10.482;2023-02-11T00:18:38;113.53;;;101.33;;
23682;SDS011;24897;53.514;10.482;2023-02-11T00:21:23;114.20;;;101.80;;
23682;SDS011;24897;53.514;10.482;2023-02-11T00:24:08;124.37;;;107.37;;
23682;SDS011;24897;53.514;10.482;2023-02-11T00:26:52;126.53;;;108.03;;
23682;SDS011;24897;53.514;10.482;2023-02-11T00:29:37;122.10;;;106.13;;
23682;SDS011;24897;53.514;10.482;2023-02-11T00:32:21;124.43;;;106.93;;
23682;SDS011;24897;53.514;10.482;2023-02-11T00:35:05;133.17;;;110.73;;
23682;SDS011;24897;53.514;10.482;2023-02-11T00:37:52;130.83;;;108.33;;
23682;SDS011;24897;53.514;10.482;2023-02-11T00:40:36;130.87;;;109.07;;
23682;SDS011;24897;53.514;10.482;2023-02-11T00:43:21;135.13;;;106.67;;
23682;SDS011;24897;53.514;10.482;2023-02-11T00:46:05;137.50;;;106.13;;
23682;SDS011;24897;53.514;10.482;2023-02-11T00:48:50;146.47;;;117.20;;
23682;SDS011;24897;53.514;10.482;2023-02-11T00:51:35;150.97;;;114.57;;
23682;SDS011;24897;53.514;10.482;2023-02-11T00:54:20;139.37;;;98.50;;
23682;SDS011;24897;53.514;10.482;2023-02-11T00:57:04;134.33;;;89.80;;
23682;SDS011;24897;53.514;10.482;2023-02-11T00:59:49;145.50;;;82.97;;
23682;SDS011;24897;53.514;10.482;2023-02-11T01:02:33;142.67;;;85.30;;
23682;SDS011;24897;53.514;10.482;2023-02-11T01:05:17;156.13;;;83.43;;
23682;SDS011;24897;53.514;10.482;2023-02-11T01:08:05;151.60;;;80.73;;
23682;SDS011;24897;53.514;10.482;2023-02-11T01:11:03;153.53;;;80.40;;
23682;SDS011;24897;53.514;10.482;2023-02-11T01:13:49;152.50;;;77.73;;
23682;SDS011;24897;53.514;10.482;2023-02-11T01:16:33;152.93;;;77.83;;
23682;SDS011;24897;53.514;10.482;2023-02-11T01:19:17;161.17;;;78.30;;
23682;SDS011;24897;53.514;10.482;2023-02-11T01:22:01;167.07;;;78.53;;
23682;SDS011;24897;53.514;10.482;2023-02-11T01:24:49;159.07;;;81.23;;
23682;SDS011;24897;53.514;10.482;2023-02-11T01:27:33;162.87;;;81.30;;
23682;SDS011;24897;53.514;10.482;2023-02-11T01:30:18;154.47;;;78.83;;
23682;SDS011;24897;53.514;10.482;2023-02-11T01:33:02;161.90;;;86.93;;
23682;SDS011;24897;53.514;10.482;2023-02-11T01:35:46;167.73;;;79.93;;
23682;SDS011;24897;53.514;10.482;2023-02-11T01:38:31;172.17;;;80.57;;
23682;SDS011;24897;53.514;10.482;2023-02-11T01:41:16;165.87;;;84.63;;
23682;SDS011;24897;53.514;10.482;2023-02-11T01:47:05;178.60;;;81.20;;
23682;SDS011;24897;53.514;10.482;2023-02-11T01:49:51;154.60;;;81.53;;
23682;SDS011;24897;53.514;10.482;2023-02-11T01:52:39;159.77;;;80.00;;
23682;SDS011;24897;53.514;10.482;2023-02-11T01:55:24;168.73;;;86.47;;
23682;SDS011;24897;53.514;10.482;2023-02-11T01:58:27;156.43;;;82.77;;
23682;SDS011;24897;53.514;10.482;2023-02-11T02:01:17;156.00;;;79.00;;
23682;SDS011;24897;53.514;10.482;2023-02-11T02:04:06;159.73;;;76.97;;
23682;SDS011;24897;53.514;10.482;2023-02-11T02:06:55;150.93;;;79.47;;
23682;SDS011;24897;53.514;10.482;2023-02-11T02:09:51;148.90;;;76.17;;
23682;SDS011;24897;53.514;10.482;2023-02-11T02:12:41;154.53;;;73.83;;
23682;SDS011;24897;53.514;10.482;2023-02-11T02:15:27;148.17;;;75.93;;
23682;SDS011;24897;53.514;10.482;2023-02-11T02:24:47;153.00;;;85.73;;
23682;SDS011;24897;53.514;10.482;2023-02-11T02:31:22;147.23;;;74.33;;
23682;SDS011;24897;53.514;10.482;2023-02-11T02:37:30;144.73;;;74.03;;
23682;SDS011;24897;53.514;10.482;2023-02-11T02:40:58;149.77;;;72.37;;
23682;SDS011;24897;53.514;10.482;2023-02-11T02:43:49;136.57;;;74.10;;
23682;SDS011;24897;53.514;10.482;2023-02-11T02:46:34;131.67;;;68.37;;
23682;SDS011;24897;53.514;10.482;2023-02-11T02:49:19;130.30;;;67.80;;
23682;SDS011;24897;53.514;10.482;2023-02-11T02:52:14;125.13;;;66.03;;
23682;SDS011;24897;53.514;10.482;2023-02-11T03:01:27;127.13;;;67.47;;
23682;SDS011;24897;53.514;10.482;2023-02-11T03:04:30;123.70;;;62.73;;
23682;SDS011;24897;53.514;10.482;2023-02-11T03:10:16;108.37;;;60.57;;
23682;SDS011;24897;53.514;10.482;2023-02-11T03:13:05;116.97;;;67.03;;
23682;SDS011;24897;53.514;10.482;2023-02-11T03:15:51;118.60;;;65.93;;
23682;SDS011;24897;53.514;10.482;2023-02-11T03:18:40;121.77;;;69.60;;
23682;SDS011;24897;53.514;10.482;2023-02-11T03:21:27;122.73;;;71.97;;
23682;SDS011;24897;53.514;10.482;2023-02-11T03:24:20;115.80;;;65.43;;
23682;SDS011;24897;53.514;10.482;2023-02-11T03:27:16;112.70;;;65.33;;
23682;SDS011;24897;53.514;10.482;2023-02-11T03:30:17;121.47;;;63.40;;
23682;SDS011;24897;53.514;10.482;2023-02-11T03:33:13;113.63;;;62.20;;
23682;SDS011;24897;53.514;10.482;2023-02-11T03:36:06;108.10;;;62.10;;
23682;SDS011;24897;53.514;10.482;2023-02-11T03:38:57;125.77;;;67.60;;
23682;SDS011;24897;53.514;10.482;2023-02-11T03:41:44;108.70;;;64.70;;
23682;SDS011;24897;53.514;10.482;2023-02-11T03:44:33;114.50;;;60.27;;
23682;SDS011;24897;53.514;10.482;2023-02-11T03:47:22;113.27;;;61.03;;
23682;SDS011;24897;53.514;10.482;2023-02-11T03:50:10;107.17;;;60.23;;
23682;SDS011;24897;53.514;10.482;2023-02-11T03:52:58;105.33;;;62.00;;
23682;SDS011;24897;53.514;10.482;2023-02-11T03:55:44;105.67;;;57.57;;
23682;SDS011;24897;53.514;10.482;2023-02-11T03:58:31;103.27;;;60.47;;
23682;SDS011;24897;53.514;10.482;2023-02-11T04:01:15;104.70;;;59.13;;
23682;SDS011;24897;53.514;10.482;2023-02-11T04:04:00;108.40;;;57.87;;
23682;SDS011;24897;53.514;10.482;2023-02-11T04:06:44;107.53;;;58.20;;
23682;SDS011;24897;53.514;10.482;2023-02-11T04:09:29;100.83;;;55.30;;
23682;SDS011;24897;53.514;10.482;2023-02-11T04:12:13;110.10;;;63.10;;
23682;SDS011;24897;53.514;10.482;2023-02-11T04:14:57;98.00;;;56.43;;
23682;SDS011;24897;53.514;10.482;2023-02-11T04:17:41;92.43;;;54.43;;
23682;SDS011;24897;53.514;10.482;2023-02-11T04:20:25;102.30;;;53.90;;
23682;SDS011;24897;53.514;10.482;2023-02-11T04:23:10;99.27;;;54.43;;
23682;SDS011;24897;53.514;10.482;2023-02-11T04:25:54;90.33;;;54.00;;
23682;SDS011;24897;53.514;10.482;2023-02-11T04:28:38;92.97;;;52.37;;
23682;SDS011;24897;53.514;10.482;2023-02-11T04:31:22;92.23;;;53.67;;
23682;SDS011;24897;53.514;10.482;2023-02-11T04:34:06;88.00;;;48.80;;
23682;SDS011;24897;53.514;10.482;2023-02-11T04:36:50;92.23;;;52.00;;
23682;SDS011;24897;53.514;10.482;2023-02-11T04:39:34;98.07;;;52.60;;
23682;SDS011;24897;53.514;10.482;2023-02-11T04:42:18;81.90;;;49.40;;
23682;SDS011;24897;53.514;10.482;2023-02-11T04:45:02;93.13;;;50.67;;
23682;SDS011;24897;53.514;10.482;2023-02-11T04:47:47;86.67;;;51.63;;
23682;SDS011;24897;53.514;10.482;2023-02-11T04:50:31;87.27;;;50.37;;
23682;SDS011;24897;53.514;10.482;2023-02-11T04:53:15;81.87;;;46.97;;
23682;SDS011;24897;53.514;10.482;2023-02-11T04:55:59;84.97;;;47.17;;
23682;SDS011;24897;53.514;10.482;2023-02-11T04:58:43;78.40;;;47.50;;
23682;SDS011;24897;53.514;10.482;2023-02-11T05:01:27;78.43;;;47.90;;
23682;SDS011;24897;53.514;10.482;2023-02-11T05:04:11;83.03;;;47.17;;
23682;SDS011;24897;53.514;10.482;2023-02-11T05:06:55;75.03;;;46.83;;
23682;SDS011;24897;53.514;10.482;2023-02-11T05:09:40;78.57;;;47.67;;
23682;SDS011;24897;53.514;10.482;2023-02-11T05:12:24;71.47;;;45.00;;
23682;SDS011;24897;53.514;10.482;2023-02-11T05:15:08;72.73;;;44.50;;
23682;SDS011;24897;53.514;10.482;2023-02-11T05:17:52;73.63;;;44.60;;
23682;SDS011;24897;53.514;10.482;2023-02-11T05:20:37;71.80;;;45.93;;
23682;SDS011;24897;53.514;10.482;2023-02-11T05:23:21;76.53;;;44.50;;
23682;SDS011;24897;53.514;10.482;2023-02-11T05:26:06;71.67;;;46.10;;
23682;SDS011;24897;53.514;10.482;2023-02-11T05:28:50;84.53;;;48.50;;
23682;SDS011;24897;53.514;10.482;2023-02-11T05:31:34;76.60;;;47.47;;
23682;SDS011;24897;53.514;10.482;2023-02-11T05:34:18;81.67;;;48.60;;
23682;SDS011;24897;53.514;10.482;2023-02-11T05:37:02;81.53;;;48.63;;
23682;SDS011;24897;53.514;10.482;2023-02-11T05:39:46;91.00;;;50.23;;
23682;SDS011;24897;53.514;10.482;2023-02-11T05:42:30;88.67;;;53.80;;
23682;SDS011;24897;53.514;10.482;2023-02-11T05:45:14;87.90;;;50.77;;
23682;SDS011;24897;53.514;10.482;2023-02-11T05:47:58;95.77;;;52.10;;
23682;SDS011;24897;53.514;10.482;2023-02-11T05:50:43;83.37;;;50.97;;
23682;SDS011;24897;53.514;10.482;2023-02-11T05:53:27;88.20;;;54.00;;
23682;SDS011;24897;53.514;10.482;2023-02-11T05:56:12;88.17;;;50.77;;
23682;SDS011;24897;53.514;10.482;2023-02-11T05:58:57;85.97;;;52.03;;
23682;SDS011;24897;53.514;10.482;2023-02-11T06:01:42;82.43;;;47.57;;
23682;SDS011;24897;53.514;10.482;2023-02-11T06:04:27;92.03;;;55.80;;
23682;SDS011;24897;53.514;10.482;2023-02-11T06:07:11;88.63;;;49.10;;
23682;SDS011;24897;53.514;10.482;2023-02-11T06:09:55;75.87;;;49.87;;
23682;SDS011;24897;53.514;10.482;2023-02-11T06:12:40;76.60;;;49.87;;
23682;SDS011;24897;53.514;10.482;2023-02-11T06:15:24;82.03;;;48.90;;
23682;SDS011;24897;53.514;10.482;2023-02-11T06:18:08;78.30;;;48.87;;
23682;SDS011;24897;53.514;10.482;2023-02-11T06:20:53;76.47;;;46.77;;
23682;SDS011;24897;53.514;10.482;2023-02-11T06:23:38;74.37;;;46.90;;
23682;SDS011;24897;53.514;10.482;2023-02-11T06:26:22;72.93;;;43.23;;
23682;SDS011;24897;53.514;10.482;2023-02-11T06:29:06;69.27;;;43.23;;
23682;SDS011;24897;53.514;10.482;2023-02-11T06:31:50;60.70;;;41.30;;
23682;SDS011;24897;53.514;10.482;2023-02-11T06:34:34;64.70;;;41.43;;
23682;SDS011;24897;53.514;10.482;2023-02-11T06:37:18;65.43;;;42.53;;
23682;SDS011;24897;53.514;10.482;2023-02-11T06:40:03;58.33;;;42.27;;
23682;SDS011;24897;53.514;10.482;2023-02-11T06:42:47;65.27;;;45.43;;
23682;SDS011;24897;53.514;10.482;2023-02-11T06:45:31;64.30;;;42.13;;
23682;SDS011;24897;53.514;10.482;2023-02-11T06:48:15;61.87;;;42.07;;
23682;SDS011;24897;53.514;10.482;2023-02-11T06:51:00;60.27;;;42.63;;
23682;SDS011;24897;53.514;10.482;2023-02-11T06:53:47;60.50;;;42.03;;
23682;SDS011;24897;53.514;10.482;2023-02-11T06:56:31;61.37;;;43.03;;
23682;SDS011;24897;53.514;10.482;2023-02-11T06:59:16;65.03;;;42.90;;
23682;SDS011;24897;53.514;10.482;2023-02-11T07:02:03;62.97;;;42.43;;
23682;SDS011;24897;53.514;10.482;2023-02-11T07:04:48;65.17;;;44.70;;
23682;SDS011;24897;53.514;10.482;2023-02-11T07:07:32;67.93;;;47.50;;
23682;SDS011;24897;53.514;10.482;2023-02-11T07:10:17;77.30;;;52.80;;
23682;SDS011;24897;53.514;10.482;2023-02-11T07:13:02;77.17;;;56.20;;
23682;SDS011;24897;53.514;10.482;2023-02-11T07:15:46;82.43;;;57.57;;
23682;SDS011;24897;53.514;10.482;2023-02-11T07:18:29;82.03;;;55.00;;
23682;SDS011;24897;53.514;10.482;2023-02-11T07:21:15;81.93;;;50.30;;
23682;SDS011;24897;53.514;10.482;2023-02-11T07:24:01;75.47;;;49.17;;
23682;SDS011;24897;53.514;10.482;2023-02-11T07:26:50;78.67;;;51.87;;
23682;SDS011;24897;53.514;10.482;2023-02-11T07:29:36;81.57;;;53.10;;
23682;SDS011;24897;53.514;10.482;2023-02-11T07:32:21;74.57;;;50.37;;
23682;SDS011;24897;53.514;10.482;2023-02-11T07:35:05;71.17;;;49.23;;
23682;SDS011;24897;53.514;10.482;2023-02-11T07:37:49;71.27;;;54.07;;
23682;SDS011;24897;53.514;10.482;2023-02-11T07:40:33;71.07;;;46.80;;
23682;SDS011;24897;53.514;10.482;2023-02-11T07:43:19;72.20;;;45.93;;
23682;SDS011;24897;53.514;10.482;2023-02-11T07:46:08;73.13;;;52.00;;
23682;SDS011;24897;53.514;10.482;2023-02-11T07:49:05;66.47;;;44.67;;
23682;SDS011;24897;53.514;10.482;2023-02-11T07:51:49;61.87;;;43.67;;
23682;SDS011;24897;53.514;10.482;2023-02-11T07:54:33;74.10;;;49.70;;
23682;SDS011;24897;53.514;10.482;2023-02-11T07:57:17;67.80;;;46.03;;
23682;SDS011;24897;53.514;10.482;2023-02-11T08:00:03;75.53;;;50.20;;
23682;SDS011;24897;53.514;10.482;2023-02-11T08:02:48;77.37;;;53.07;;
23682;SDS011;24897;53.514;10.482;2023-02-11T08:05:32;68.40;;;47.17;;
23682;SDS011;24897;53.514;10.482;2023-02-11T08:08:16;70.63;;;51.60;;
23682;SDS011;24897;53.514;10.482;2023-02-11T08:11:05;69.80;;;51.07;;
23682;SDS011;24897;53.514;10.482;2023-02-11T08:13:54;69.83;;;48.33;;
23682;SDS011;24897;53.514;10.482;2023-02-11T08:16:39;70.27;;;49.50;;
23682;SDS011;24897;53.514;10.482;2023-02-11T08:19:24;71.03;;;47.30;;
23682;SDS011;24897;53.514;10.482;2023-02-11T08:22:08;67.40;;;48.40;;
23682;SDS011;24897;53.514;10.482;2023-02-11T08:24:52;64.27;;;45.33;;
23682;SDS011;24897;53.514;10.482;2023-02-11T08:27:36;64.20;;;43.13;;
23682;SDS011;24897;53.514;10.482;2023-02-11T08:30:20;63.47;;;41.87;;
23682;SDS011;24897;53.514;10.482;2023-02-11T08:33:04;70.97;;;48.27;;
23682;SDS011;24897;53.514;10.482;2023-02-11T08:35:48;62.80;;;42.20;;
23682;SDS011;24897;53.514;10.482;2023-02-11T08:38:32;59.10;;;38.27;;
23682;SDS011;24897;53.514;10.482;2023-02-11T08:41:16;57.17;;;42.10;;
23682;SDS011;24897;53.514;10.482;2023-02-11T08:44:00;58.03;;;44.47;;
23682;SDS011;24897;53.514;10.482;2023-02-11T08:46:45;62.17;;;39.73;;
23682;SDS011;24897;53.514;10.482;2023-02-11T08:49:30;51.63;;;39.33;;
23682;SDS011;24897;53.514;10.482;2023-02-11T08:52:16;51.87;;;37.77;;
23682;SDS011;24897;53.514;10.482;2023-02-11T08:55:00;53.73;;;40.13;;
23682;SDS011;24897;53.514;10.482;2023-02-11T08:57:44;66.93;;;48.10;;
23682;SDS011;24897;53.514;10.482;2023-02-11T09:00:28;64.70;;;48.30;;
23682;SDS011;24897;53.514;10.482;2023-02-11T09:03:13;62.47;;;46.77;;
23682;SDS011;24897;53.514;10.482;2023-02-11T09:05:58;64.13;;;44.90;;
23682;SDS011;24897;53.514;10.482;2023-02-11T09:08:44;58.43;;;41.83;;
23682;SDS011;24897;53.514;10.482;2023-02-11T09:11:33;62.47;;;45.80;;
23682;SDS011;24897;53.514;10.482;2023-02-11T09:14:19;58.93;;;44.17;;
23682;SDS011;24897;53.514;10.482;2023-02-11T09:17:04;62.27;;;44.67;;
23682;SDS011;24897;53.514;10.482;2023-02-11T09:19:48;60.47;;;44.63;;
23682;SDS011;24897;53.514;10.482;2023-02-11T09:22:36;61.30;;;44.07;;
23682;SDS011;24897;53.514;10.482;2023-02-11T09:25:20;61.77;;;39.53;;
23682;SDS011;24897;53.514;10.482;2023-02-11T09:28:04;52.80;;;37.00;;
23682;SDS011;24897;53.514;10.482;2023-02-11T09:30:52;62.53;;;43.23;;
23682;SDS011;24897;53.514;10.482;2023-02-11T09:33:37;54.60;;;41.80;;
23682;SDS011;24897;53.514;10.482;2023-02-11T09:36:23;54.20;;;36.13;;
23682;SDS011;24897;53.514;10.482;2023-02-11T09:39:13;48.50;;;35.30;;
23682;SDS011;24897;53.514;10.482;2023-02-11T09:44:49;57.60;;;41.10;;
23682;SDS011;24897;53.514;10.482;2023-02-11T09:47:35;52.87;;;35.97;;
23682;SDS011;24897;53.514;10.482;2023-02-11T09:50:41;54.83;;;39.37;;
23682;SDS011;24897;53.514;10.482;2023-02-11T09:53:41;57.33;;;38.00;;
23682;SDS011;24897;53.514;10.482;2023-02-11T09:56:26;53.70;;;35.87;;
23682;SDS011;24897;53.514;10.482;2023-02-11T09:59:14;54.67;;;37.23;;
23682;SDS011;24897;53.514;10.482;2023-02-11T10:02:05;54.40;;;36.73;;
23682;SDS011;24897;53.514;10.482;2023-02-11T10:08:15;52.83;;;35.20;;
23682;SDS011;24897;53.514;10.482;2023-02-11T10:17:52;61.93;;;42.03;;
23682;SDS011;24897;53.514;10.482;2023-02-11T10:23:54;49.00;;;36.60;;
23682;SDS011;24897;53.514;10.482;2023-02-11T10:26:43;59.20;;;39.20;;
23682;SDS011;24897;53.514;10.482;2023-02-11T10:29:36;53.97;;;35.60;;
23682;SDS011;24897;53.514;10.482;2023-02-11T10:32:29;53.10;;;35.50;;
23682;SDS011;24897;53.514;10.482;2023-02-11T10:35:20;54.23;;;36.17;;
23682;SDS011;24897;53.514;10.482;2023-02-11T10:38:10;56.90;;;39.80;;
23682;SDS011;24897;53.514;10.482;2023-02-11T10:40:54;56.93;;;38.87;;
23682;SDS011;24897;53.514;10.482;2023-02-11T10:43:39;60.97;;;38.77;;
23682;SDS011;24897;53.514;10.482;2023-02-11T10:46:28;54.53;;;37.03;;
23682;SDS011;24897;53.514;10.482;2023-02-11T10:49:32;55.83;;;37.57;;
23682;SDS011;24897;53.514;10.482;2023-02-11T10:52:18;55.73;;;38.03;;
23682;SDS011;24897;53.514;10.482;2023-02-11T10:57:57;54.67;;;37.37;;
23682;SDS011;24897;53.514;10.482;2023-02-11T11:00:43;62.90;;;39.83;;
23682;SDS011;24897;53.514;10.482;2023-02-11T11:03:38;59.97;;;39.53;;
23682;SDS011;24897;53.514;10.482;2023-02-11T11:06:30;60.20;;;40.90;;
23682;SDS011;24897;53.514;10.482;2023-02-11T11:09:28;57.53;;;37.43;;
23682;SDS011;24897;53.514;10.482;2023-02-11T11:20:57;55.07;;;38.03;;
23682;SDS011;24897;53.514;10.482;2023-02-11T11:23:54;58.57;;;35.93;;
23682;SDS011;24897;53.514;10.482;2023-02-11T11:26:41;51.97;;;31.80;;
23682;SDS011;24897;53.514;10.482;2023-02-11T11:29:45;50.90;;;36.37;;
23682;SDS011;24897;53.514;10.482;2023-02-11T11:32:32;51.73;;;33.47;;
23682;SDS011;24897;53.514;10.482;2023-02-11T11:35:29;47.97;;;32.43;;
23682;SDS011;24897;53.514;10.482;2023-02-11T11:38:15;57.80;;;38.97;;
23682;SDS011;24897;53.514;10.482;2023-02-11T11:41:14;50.97;;;34.70;;
23682;SDS011;24897;53.514;10.482;2023-02-11T11:44:26;45.77;;;34.90;;
23682;SDS011;24897;53.514;10.482;2023-02-11T11:47:18;51.07;;;38.33;;
23682;SDS011;24897;53.514;10.482;2023-02-11T11:50:14;48.47;;;33.00;;
23682;SDS011;24897;53.514;10.482;2023-02-11T11:59:08;44.30;;;31.37;;
23682;SDS011;24897;53.514;10.482;2023-02-11T12:05:06;47.30;;;31.93;;
23682;SDS011;24897;53.514;10.482;2023-02-11T12:14:26;40.93;;;29.10;;
23682;SDS011;24897;53.514;10.482;2023-02-11T12:24:21;43.40;;;33.40;;
23682;SDS011;24897;53.514;10.482;2023-02-11T12:45:20;39.53;;;30.93;;
23682;SDS011;24897;53.514;10.482;2023-02-11T12:54:32;38.73;;;30.13;;
23682;SDS011;24897;53.514;10.482;2023-02-11T12:57:25;39.97;;;29.57;;
23682;SDS011;24897;53.514;10.482;2023-02-11T13:00:22;41.13;;;28.60;;
23682;SDS011;24897;53.514;10.482;2023-02-11T13:06:02;39.93;;;29.53;;
23682;SDS011;24897;53.514;10.482;2023-02-11T13:08:55;38.83;;;28.37;;
23682;SDS011;24897;53.514;10.482;2023-02-11T13:11:49;38.57;;;29.43;;
23682;SDS011;24897;53.514;10.482;2023-02-11T13:14:36;41.47;;;28.23;;
23682;SDS011;24897;53.514;10.482;2023-02-11T13:17:33;39.83;;;29.17;;
23682;SDS011;24897;53.514;10.482;2023-02-11T13:20:41;38.57;;;27.83;;
23682;SDS011;24897;53.514;10.482;2023-02-11T13:35:39;38.80;;;27.50;;
23682;SDS011;24897;53.514;10.482;2023-02-11T13:38:24;39.43;;;27.90;;
23682;SDS011;24897;53.514;10.482;2023-02-11T13:44:24;35.20;;;25.13;;
23682;SDS011;24897;53.514;10.482;2023-02-11T13:47:11;39.90;;;29.50;;
23682;SDS011;24897;53.514;10.482;2023-02-11T13:50:19;41.03;;;29.00;;
23682;SDS011;24897;53.514;10.482;2023-02-11T13:53:06;40.67;;;27.47;;
23682;SDS011;24897;53.514;10.482;2023-02-11T13:55:52;41.47;;;26.67;;
23682;SDS011;24897;53.514;10.482;2023-02-11T13:58:50;39.83;;;28.17;;
23682;SDS011;24897;53.514;10.482;2023-02-11T14:17:17;41.93;;;26.87;;
23682;SDS011;24897;53.514;10.482;2023-02-11T14:23:23;42.80;;;27.77;;
23682;SDS011;24897;53.514;10.482;2023-02-11T14:35:20;39.00;;;26.60;;
23682;SDS011;24897;53.514;10.482;2023-02-11T14:38:30;39.57;;;26.40;;
23682;SDS011;24897;53.514;10.482;2023-02-11T14:41:30;44.50;;;27.17;;
23682;SDS011;24897;53.514;10.482;2023-02-11T14:44:24;39.90;;;26.53;;
23682;SDS011;24897;53.514;10.482;2023-02-11T14:47:22;41.60;;;27.13;;
23682;SDS011;24897;53.514;10.482;2023-02-11T14:50:17;39.27;;;27.30;;
23682;SDS011;24897;53.514;10.482;2023-02-11T14:53:05;39.30;;;28.83;;
23682;SDS011;24897;53.514;10.482;2023-02-11T14:55:55;40.87;;;26.43;;
23682;SDS011;24897;53.514;10.482;2023-02-11T14:58:39;37.87;;;26.23;;
23682;SDS011;24897;53.514;10.482;2023-02-11T15:01:31;39.33;;;26.63;;
23682;SDS011;24897;53.514;10.482;2023-02-11T15:04:24;39.33;;;25.03;;
23682;SDS011;24897;53.514;10.482;2023-02-11T15:07:10;40.97;;;32.33;;
23682;SDS011;24897;53.514;10.482;2023-02-11T15:09:55;43.50;;;27.77;;
23682;SDS011;24897;53.514;10.482;2023-02-11T15:12:39;41.03;;;28.77;;
23682;SDS011;24897;53.514;10.482;2023-02-11T15:15:30;42.77;;;26.83;;
23682;SDS011;24897;53.514;10.482;2023-02-11T15:18:17;34.77;;;25.40;;
23682;SDS011;24897;53.514;10.482;2023-02-11T15:21:05;34.33;;;26.47;;
23682;SDS011;24897;53.514;10.482;2023-02-11T15:23:59;38.57;;;26.53;;
23682;SDS011;24897;53.514;10.482;2023-02-11T15:26:54;36.20;;;26.87;;
23682;SDS011;24897;53.514;10.482;2023-02-11T15:29:40;33.90;;;25.83;;
23682;SDS011;24897;53.514;10.482;2023-02-11T15:32:29;39.50;;;28.60;;
23682;SDS011;24897;53.514;10.482;2023-02-11T15:35:13;41.27;;;29.67;;
23682;SDS011;24897;53.514;10.482;2023-02-11T15:37:58;39.50;;;27.80;;
23682;SDS011;24897;53.514;10.482;2023-02-11T15:40:53;41.83;;;26.67;;
23682;SDS011;24897;53.514;10.482;2023-02-11T15:43:44;39.47;;;28.57;;
23682;SDS011;24897;53.514;10.482;2023-02-11T15:46:36;41.73;;;30.80;;
23682;SDS011;24897;53.514;10.482;2023-02-11T15:49:22;52.47;;;34.53;;
23682;SDS011;24897;53.514;10.482;2023-02-11T15:52:08;43.17;;;33.40;;
23682;SDS011;24897;53.514;10.482;2023-02-11T15:54:53;45.23;;;29.07;;
23682;SDS011;24897;53.514;10.482;2023-02-11T15:57:41;43.37;;;34.30;;
23682;SDS011;24897;53.514;10.482;2023-02-11T16:00:53;43.90;;;33.53;;
23682;SDS011;24897;53.514;10.482;2023-02-11T16:03:42;48.60;;;34.50;;
23682;SDS011;24897;53.514;10.482;2023-02-11T16:06:36;44.30;;;34.87;;
23682;SDS011;24897;53.514;10.482;2023-02-11T16:09:24;50.00;;;36.50;;
23682;SDS011;24897;53.514;10.482;2023-02-11T16:12:24;45.40;;;34.13;;
23682;SDS011;24897;53.514;10.482;2023-02-11T16:21:13;39.37;;;29.17;;
23682;SDS011;24897;53.514;10.482;2023-02-11T16:23:59;43.63;;;30.70;;
23682;SDS011;24897;53.514;10.482;2023-02-11T16:26:46;40.37;;;27.17;;
23682;SDS011;24897;53.514;10.482;2023-02-11T16:29:35;42.77;;;30.50;;
23682;SDS011;24897;53.514;10.482;2023-02-11T16:32:24;46.83;;;32.47;;
23682;SDS011;24897;53.514;10.482;2023-02-11T16:35:10;44.90;;;31.40;;
23682;SDS011;24897;53.514;10.482;2023-02-11T16:37:56;48.87;;;30.37;;
23682;SDS011;24897;53.514;10.482;2023-02-11T16:40:40;43.60;;;29.10;;
23682;SDS011;24897;53.514;10.482;2023-02-11T16:43:26;45.03;;;31.43;;
23682;SDS011;24897;53.514;10.482;2023-02-11T16:46:14;58.20;;;36.83;;
23682;SDS011;24897;53.514;10.482;2023-02-11T16:49:03;45.27;;;30.60;;
23682;SDS011;24897;53.514;10.482;2023-02-11T16:51:54;58.00;;;35.70;;
23682;SDS011;24897;53.514;10.482;2023-02-11T16:54:43;53.67;;;36.57;;
23682;SDS011;24897;53.514;10.482;2023-02-11T16:57:28;57.40;;;36.50;;
23682;SDS011;24897;53.514;10.482;2023-02-11T17:00:14;58.20;;;35.97;;
23682;SDS011;24897;53.514;10.482;2023-02-11T17:02:59;50.57;;;33.27;;
23682;SDS011;24897;53.514;10.482;2023-02-11T17:05:43;56.67;;;35.73;;
23682;SDS011;24897;53.514;10.482;2023-02-11T17:08:28;42.37;;;28.97;;
23682;SDS011;24897;53.514;10.482;2023-02-11T17:11:12;55.43;;;37.00;;
23682;SDS011;24897;53.514;10.482;2023-02-11T17:13:59;50.23;;;35.40;;
23682;SDS011;24897;53.514;10.482;2023-02-11T17:16:46;56.83;;;33.90;;
23682;SDS011;24897;53.514;10.482;2023-02-11T17:19:30;51.97;;;31.97;;
23682;SDS011;24897;53.514;10.482;2023-02-11T17:22:14;59.60;;;33.83;;
23682;SDS011;24897;53.514;10.482;2023-02-11T17:24:59;57.87;;;36.83;;
23682;SDS011;24897;53.514;10.482;2023-02-11T17:27:43;55.07;;;35.83;;
23682;SDS011;24897;53.514;10.482;2023-02-11T17:30:27;52.47;;;34.73;;
23682;SDS011;24897;53.514;10.482;2023-02-11T17:33:11;61.10;;;38.57;;
23682;SDS011;24897;53.514;10.482;2023-02-11T17:35:55;53.20;;;29.73;;
23682;SDS011;24897;53.514;10.482;2023-02-11T17:38:39;52.90;;;32.30;;
23682;SDS011;24897;53.514;10.482;2023-02-11T17:41:23;49.10;;;30.83;;
23682;SDS011;24897;53.514;10.482;2023-02-11T17:44:09;65.23;;;46.20;;
23682;SDS011;24897;53.514;10.482;2023-02-11T17:46:54;61.20;;;42.20;;
23682;SDS011;24897;53.514;10.482;2023-02-11T17:49:38;65.40;;;42.77;;
23682;SDS011;24897;53.514;10.482;2023-02-11T17:52:23;64.37;;;44.50;;
23682;SDS011;24897;53.514;10.482;2023-02-11T17:55:10;54.00;;;35.77;;
23682;SDS011;24897;53.514;10.482;2023-02-11T17:57:54;67.07;;;42.50;;
23682;SDS011;24897;53.514;10.482;2023-02-11T18:00:38;47.33;;;33.33;;
23682;SDS011;24897;53.514;10.482;2023-02-11T18:03:23;52.07;;;31.37;;
23682;SDS011;24897;53.514;10.482;2023-02-11T18:06:07;47.73;;;31.17;;
23682;SDS011;24897;53.514;10.482;2023-02-11T18:08:51;51.10;;;33.53;;
23682;SDS011;24897;53.514;10.482;2023-02-11T18:11:37;59.20;;;34.10;;
23682;SDS011;24897;53.514;10.482;2023-02-11T18:14:25;51.17;;;33.47;;
23682;SDS011;24897;53.514;10.482;2023-02-11T18:17:09;60.27;;;41.50;;
23682;SDS011;24897;53.514;10.482;2023-02-11T18:19:54;53.80;;;37.20;;
23682;SDS011;24897;53.514;10.482;2023-02-11T18:22:39;55.43;;;34.60;;
23682;SDS011;24897;53.514;10.482;2023-02-11T18:25:23;55.03;;;38.87;;
23682;SDS011;24897;53.514;10.482;2023-02-11T18:28:08;63.10;;;40.70;;
23682;SDS011;24897;53.514;10.482;2023-02-11T18:30:58;59.27;;;36.33;;
23682;SDS011;24897;53.514;10.482;2023-02-11T18:33:43;57.07;;;34.87;;
23682;SDS011;24897;53.514;10.482;2023-02-11T18:36:27;67.40;;;37.73;;